Latest Coastal Weather Observations for Lake Macquarie - Cooranbong

IDN60701

Issued at 6:01 am EDT Tuesday 24 January 2017 (issued every 10 minutes, with the page automatically refreshed every 10 minutes)

About coastal observations | Map of coastal stations | Coastal observations for NSW | Marine services | Other Formats
Station Details ID: 061412 Name: LAKE MACQUARIE AWS Lat: -33.09 Lon: 151.46 Height: 6.0 m
Data from the previous 72 hours. | See also: Recent months at Lake Macquarie - Cooranbong
Date/Time
EDT
Temp
°C
Wind Pressure Rain since
9am
mm
Weather Cloud Vis
km
Sea
Height
m
Swell
Dir  Spd
kts
Gust
kts
hPa Trend Height
m
Period
s
Dir
24/05:30am 19.6 CALM 0 0 1007.3 - 0.0 - - - - - - -
24/05:00am 19.5 CALM 0 0 1007.1 - 0.0 - - - - - - -
24/04:30am 19.8 CALM 0 0 1007.1 - 0.0 - - - - - - -
24/04:00am 19.9 CALM 0 0 1007.4 - 0.0 - - - - - - -
24/03:30am 20.3 CALM 0 0 1007.6 - 0.0 - - - - - - -
24/03:00am 20.7 CALM 0 0 1007.9 - 0.0 - - - - - - -
24/02:30am 20.6 CALM 0 0 1008.2 - 0.0 - - - - - - -
24/02:00am 20.8 CALM 0 0 1008.3 - 0.0 - - - - - - -
24/01:30am 21.0 CALM 0 0 1008.5 - 0.0 - - - - - - -
24/01:00am 21.3 CALM 0 0 1008.7 - 0.0 - - - - - - -
24/12:30am 22.0 CALM 0 0 1008.9 - 0.0 - - - - - - -
24/12:00am 22.4 CALM 0 0 1009.4 - 0.0 - - - - - - -
 
Date/Time
EDT
Temp
°C
Wind Pressure Rain since
9am
mm
Weather Cloud Vis
km
Sea
Height
m
Swell
Dir  Spd
kts
Gust
kts
hPa Trend Height
m
Period
s
Dir
23/11:30pm 22.9 CALM 0 0 1009.5 - 0.0 - - - - - - -
23/11:00pm 24.3 CALM 0 0 1009.6 - 0.0 - - - - - - -
23/10:30pm 25.2 ENE 1 1 1009.8 - 0.0 - - - - - - -
23/10:00pm 26.5 ENE 1 4 1009.9 - 0.0 - - - - - - -
23/09:30pm 26.2 ESE 1 3 1009.7 - 0.0 - - - - - - -
23/09:00pm 26.7 E 3 4 1009.3 - 0.0 - - - - - - -
23/08:30pm 26.9 NE 1 2 1008.9 - 0.0 - - - - - - -
23/08:00pm 27.0 ESE 1 2 1008.9 - 0.0 - - - - - - -
23/07:30pm 27.7 SE 4 6 1008.7 - 0.0 - - - - - - -
23/07:00pm 29.0 E 5 8 1008.4 - 0.0 - - - - - - -
23/06:30pm 30.3 ESE 5 9 1008.2 - 0.0 - - - - - - -
23/06:00pm 30.5 ESE 7 11 1008.2 - 0.0 - - - - - - -
23/05:30pm 30.4 ESE 7 11 1008.5 - 0.0 - - - - - - -
23/05:00pm 31.7 ESE 8 13 1008.7 - 0.0 - - - - - - -
23/04:30pm 30.9 ESE 8 12 1009.2 - 0.0 - - - - - - -
23/04:00pm 30.8 ESE 9 14 1009.7 - 0.0 - - - - - - -
23/03:30pm 30.3 ESE 10 17 1010.2 - 0.0 - - - - - - -
23/03:00pm 30.6 E 11 17 1010.5 - 0.0 - - - - - - -
23/02:30pm 30.3 ESE 8 13 1011.1 - 0.0 - - - - - - -
23/02:00pm 29.9 ESE 8 13 1011.4 - 0.0 - - - - - - -
23/01:30pm 29.2 E 7 14 1011.8 - 0.0 - - - - - - -
23/01:00pm 28.8 ESE 9 15 1012.3 - 0.0 - - - - - - -
23/12:30pm 29.1 E 6 11 1012.7 - 0.0 - - - - - - -
23/12:00pm 29.5 ESE 6 10 1013.1 - 0.0 - - - - - - -
23/11:30am 29.0 E 4 8 1013.5 - 0.0 - - - - - - -
23/11:00am 27.8 E 4 7 1014.1 - 0.0 - - - - - - -
23/10:30am 26.4 N 3 6 1014.4 - 0.0 - - - - - - -
23/10:00am 25.4 N 1 2 1014.7 - 0.0 - - - - - - -
23/09:30am 24.4 E 2 3 1014.8 - 0.0 - - - - - - -
23/09:00am 23.6 NNW 3 7 1015.2 - 0.0 - - - - - - -
23/08:30am 21.1 N 3 4 1015.4 - 0.0 - - - - - - -
23/08:00am 19.6 CALM 0 0 1014.8 - 0.0 - - - - - - -
23/07:30am 18.2 CALM 0 0 1014.6 - 0.0 - - - - - - -
23/07:00am 16.1 CALM 0 2 1014.5 - 0.0 - - - - - - -
23/06:30am 15.8 CALM 0 0 1014.2 - 0.0 - - - - - - -
23/06:00am 15.6 CALM 0 0 1014.1 - 0.0 - - - - - - -
23/05:30am 15.6 CALM 0 0 1014.0 - 0.0 - - - - - - -
23/05:00am 16.1 CALM 0 0 1013.9 - 0.0 - - - - - - -
23/04:30am 16.1 CALM 0 0 1013.7 - 0.0 - - - - - - -
23/04:00am 16.5 CALM 0 0 1013.7 - 0.0 - - - - - - -
23/03:30am 16.8 CALM 0 0 1013.8 - 0.0 - - - - - - -
23/03:00am 17.1 CALM 0 0 1014.1 - 0.0 - - - - - - -
23/02:30am 17.3 CALM 0 0 1014.2 - 0.0 - - - - - - -
23/02:00am 17.5 CALM 0 0 1014.5 - 0.0 - - - - - - -
23/01:30am 17.7 CALM 0 0 1014.6 - 0.0 - - - - - - -
23/01:00am 18.1 CALM 0 0 1014.9 - 0.0 - - - - - - -
23/12:30am 18.6 CALM 0 0 1015.2 - 0.0 - - - - - - -
23/12:00am 19.0 CALM 0 0 1015.4 - 0.0 - - - - - - -
 
Date/Time
EDT
Temp
°C
Wind Pressure Rain since
9am
mm
Weather Cloud Vis
km
Sea
Height
m
Swell
Dir  Spd
kts
Gust
kts
hPa Trend Height
m
Period
s
Dir
22/11:30pm 19.8 CALM 0 0 1015.5 - 0.0 - - - - - - -
22/11:00pm 21.1 CALM 0 0 1015.5 - 0.0 - - - - - - -
22/10:30pm 21.8 ENE 1 4 1015.7 - 0.0 - - - - - - -
22/10:00pm 22.0 NE 2 4 1015.7 - 0.0 - - - - - - -
22/09:30pm 22.4 NE 3 7 1015.8 - 0.0 - - - - - - -
22/09:00pm 22.5 ENE 3 7 1015.7 - 0.0 - - - - - - -
22/08:30pm 22.8 E 4 8 1015.8 - 0.0 - - - - - - -
22/08:00pm 23.2 ENE 4 7 1015.7 - 0.0 - - - - - - -
22/07:30pm 23.7 E 4 8 1015.5 - 0.0 - - - - - - -
22/07:00pm 24.6 E 6 13 1015.1 - 0.0 - - - - - - -
22/06:30pm 24.9 E 8 13 1014.9 - 0.0 - - - - - - -
22/06:00pm 25.2 E 8 15 1014.6 - 0.0 - - - - - - -
22/05:30pm 25.6 E 7 15 1014.7 - 0.0 - - - - - - -
22/05:00pm 26.0 ESE 9 15 1015.0 - 0.0 - - - - - - -
22/04:30pm 25.9 E 10 16 1015.1 - 0.0 - - - - - - -
22/04:00pm 26.3 ESE 10 15 1015.4 - 0.0 - - - - - - -
22/03:30pm 26.1 E 10 15 1015.5 - 0.0 - - - - - - -
22/03:00pm 27.2 E 8 14 1015.6 - 0.0 - - - - - - -
22/02:30pm 26.6 ESE 9 13 1015.9 - 0.0 - - - - - - -
22/02:00pm 26.5 ESE 8 12 1016.1 - 0.0 - - - - - - -
22/01:30pm 26.2 ESE 9 13 1016.2 - 0.0 - - - - - - -
22/01:00pm 26.5 ESE 8 13 1016.6 - 0.0 - - - - - - -
22/12:30pm 26.4 E 5 9 1016.9 - 0.0 - - - - - - -
22/12:00pm 25.5 NE 4 7 1017.3 - 0.0 - - - - - - -
22/11:30am 26.3 E 3 6 1017.4 - 0.0 - - - - - - -
22/11:00am 25.5 SE 4 7 1017.5 - 0.0 - - - - - - -
22/10:30am 26.0 SE 3 7 1017.6 - 0.0 - - - - - - -
22/10:00am 24.7 SW 2 5 1017.6 - 0.0 - - - - - - -
22/09:30am 23.9 ESE 2 5 1017.8 - 0.0 - - - - - - -
22/09:00am 23.7 SSW 2 4 1017.9 - 0.0 - - - - - - -
22/08:30am 22.4 S 2 4 1017.9 - 0.0 - - - - - - -
22/08:00am 20.6 NNW 1 3 1017.9 - 0.0 - - - - - - -
22/07:30am 19.9 NW 1 2 1017.9 - 0.0 - - - - - - -
22/07:00am 19.2 CALM 0 0 1017.7 - 0.0 - - - - - - -
22/06:30am 18.7 CALM 0 0 1017.3 - 0.0 - - - - - - -
22/06:00am 18.6 CALM 0 0 1017.0 - 0.0 - - - - - - -
22/05:30am 18.5 CALM 0 0 1016.8 - 0.0 - - - - - - -
22/05:00am 18.5 CALM 0 0 1016.5 - 0.0 - - - - - - -
22/04:30am 18.3 CALM 0 0 1016.3 - 0.0 - - - - - - -
22/04:00am 18.1 CALM 0 0 1016.1 - 0.0 - - - - - - -
22/03:30am 17.7 CALM 0 0 1016.2 - 0.0 - - - - - - -
22/03:00am 17.8 CALM 0 0 1016.4 - 0.0 - - - - - - -
22/02:30am 17.4 CALM 0 0 1016.4 - 0.0 - - - - - - -
22/02:00am 17.1 CALM 0 0 1016.6 - 0.0 - - - - - - -
22/01:30am 16.7 CALM 0 0 1016.8 - 0.0 - - - - - - -
22/01:00am 16.6 CALM 0 0 1016.8 - 0.0 - - - - - - -
22/12:30am 17.1 CALM 0 0 1017.0 - 0.0 - - - - - - -
22/12:00am 17.7 CALM 0 0 1017.0 - 0.0 - - - - - - -
 
Date/Time
EDT
Temp
°C
Wind Pressure Rain since
9am
mm
Weather Cloud Vis
km
Sea
Height
m
Swell
Dir  Spd
kts
Gust
kts
hPa Trend Height
m
Period
s
Dir
21/11:30pm 18.1 CALM 0 0 1017.0 - 0.0 - - - - - - -
21/11:00pm 17.7 CALM 0 0 1016.9 - 0.0 - - - - - - -
21/10:30pm 17.3 CALM 0 0 1016.9 - 0.0 - - - - - - -
21/10:00pm 17.6 CALM 0 0 1016.7 - 0.0 - - - - - - -
21/09:30pm 18.4 CALM 0 0 1016.3 - 0.0 - - - - - - -
21/09:00pm 19.3 CALM 0 0 1015.8 - 0.0 - - - - - - -
21/08:30pm 20.3 CALM 0 2 1015.3 - 0.0 - - - - - - -
21/08:00pm 21.1 SSE 2 3 1014.9 - 0.0 - - - - - - -
21/07:30pm 21.7 SSE 3 6 1014.5 - 0.0 - - - - - - -
21/07:00pm 22.4 SSE 4 7 1014.0 - 0.0 - - - - - - -
21/06:30pm 23.3 SSE 5 10 1013.5 - 0.0 - - - - - - -
21/06:00pm 23.4 SE 5 9 1013.1 - 0.0 - - - - - - -
21/05:30pm 23.1 SE 6 9 1012.9 - 0.0 - - - - - - -
21/05:00pm 23.7 SE 5 9 1012.7 - 0.0 - - - - - - -
21/04:30pm 23.5 SE 8 15 1012.4 - 0.0 - - - - - - -
21/04:00pm 24.7 ESE 7 11 1012.3 - 0.0 - - - - - - -
21/03:30pm 24.2 ESE 6 12 1012.3 - 0.0 - - - - - - -
21/03:00pm 25.4 SE 6 11 1012.1 - 0.0 - - - - - - -
21/02:30pm 24.8 SSE 6 11 1012.1 - 0.0 - - - - - - -
21/02:00pm 25.1 ESE 6 9 1012.0 - 0.0 - - - - - - -
21/01:30pm 24.5 ESE 6 11 1012.0 - 0.0 - - - - - - -
21/01:00pm 24.1 SE 6 11 1012.0 - 0.0 - - - - - - -
21/12:30pm 23.4 SE 6 11 1012.0 - 0.0 - - - - - - -
21/12:00pm 23.0 SE 5 8 1012.0 - 0.0 - - - - - - -
21/11:30am 22.9 SE 4 8 1011.8 - 0.0 - - - - - - -
21/11:00am 22.7 SSE 5 11 1011.5 - 0.0 - - - - - - -
21/10:30am 23.1 S 4 8 1011.4 - 0.0 - - - - - - -
21/10:00am 22.7 SSW 3 7 1011.1 - 0.0 - - - - - - -
21/09:30am 22.2 S 3 6 1010.8 - 0.0 - - - - - - -
21/09:00am 22.0 SSW 2 5 1010.7 - 10.4 - - - - - - -
21/08:30am 21.9 CALM 0 3 1010.3 - 10.4 - - - - - - -
21/08:00am 21.7 SSW 3 6 1009.9 - 10.4 - - - - - - -
21/07:30am 21.4 WSW 1 2 1009.4 - 10.4 - - - - - - -
21/07:00am 21.1 WSW 1 3 1008.6 - 10.4 - - - - - - -
21/06:30am 21.0 SW 3 6 1008.1 - 10.4 - - - - - - -

Other Formats:

Comma delimited format used in spreadsheet applications
http://www.bom.gov.au/fwo/IDN60701/IDN60701.95767.axf

JavaScript Object Notation format (JSON) in row-major order
http://www.bom.gov.au/fwo/IDN60701/IDN60701.95767.json